Time;durP1;ratioP1;P1;durP2;ratioP2;P2;SDS_P1;SDS_P2;PMS_P1;PMS_P2;Temp;Humidity;BMP_temperature;BMP_pressure;BME280_temperature;BME280_humidity;BME280_pressure;Samples;Min_cycle;Max_cycle;Signal;HPM_P1;HPM_P2
2022/11/06 00:02:04;;;;;;;;;;;;;;;-143.57;74.88;51100.22;5053428;28;20061;-63
2022/11/06 00:04:30;;;;;;;;;;;;;;;-143.57;76.04;51088.28;5053421;28;20473;-64
2022/11/06 00:06:57;;;;;;;;;;;;;;;-143.57;76.43;51143.97;5054716;28;19929;-63
2022/11/06 00:09:23;;;;;;;;;;;;;;;-143.57;76.62;51161.84;5049159;28;19928;-63
2022/11/06 00:11:51;;;;;;;;;;;;;;;-143.57;77.11;51088.28;5052000;28;20427;-63
2022/11/06 00:14:18;;;;;;;;;;;;;;;-143.57;78.25;51116.13;5054532;28;20044;-63
2022/11/06 00:16:45;;;;;;;;;;;;;;;-143.57;78.41;51136.00;5053910;28;20307;-63
2022/11/06 00:19:12;;;;;;;;;;;;;;;-143.57;79.17;51112.16;5052023;28;19932;-64
2022/11/06 00:21:39;;;;;;;;;;;;;;;-143.57;79.73;51104.19;5052756;28;19979;-64
2022/11/06 00:24:06;;;;;;;;;;;;;;;-143.57;79.83;51100.22;5049987;28;19960;-63
2022/11/06 00:26:33;;;;;;;;;;;;;;;-143.57;79.92;51143.97;5054945;28;20441;-64
2022/11/06 00:29:00;;;;;;;;;;;;;;;-143.57;79.65;51134.00;5056024;28;20386;-64
2022/11/06 00:31:29;;;;;;;;;;;;;;;-143.57;80.04;51124.06;5051306;28;19936;-64
2022/11/06 00:33:56;;;;;;;;;;;;;;;-143.57;80.39;51104.19;5050815;28;19932;-64
2022/11/06 00:36:24;;;;;;;;;;;;;;;-143.57;80.50;51116.13;5053423;28;19968;-64
2022/11/06 00:38:52;;;;;;;;;;;;;;;-143.57;80.39;51141.97;5051430;28;19925;-64
2022/11/06 00:41:18;;;;;;;;;;;;;;;-143.57;80.39;51128.06;5052647;28;19929;-64
2022/11/06 00:43:52;;;;;;;;;;;;;;;-143.57;81.69;51108.19;5049308;28;20017;-64
2022/11/06 00:46:19;;;;;;;;;;;;;;;-143.57;82.15;51143.97;5049643;28;20456;-64
2022/11/06 00:48:46;;;;;;;;;;;;;;;-143.57;82.71;51120.09;5048672;28;19939;-64
2022/11/06 00:51:18;;;;;;;;;;;;;;;-143.57;83.41;51120.09;5052848;28;19924;-64
2022/11/06 00:53:44;;;;;;;;;;;;;;;-143.57;83.76;51147.94;5046720;28;20351;-64
2022/11/06 00:56:13;;;;;;;;;;;;;;;-143.57;85.44;51134.00;5050022;28;20435;-64
2022/11/06 00:58:40;;;;;;;;;;;;;;;-143.57;85.89;51128.06;5052840;28;20268;-64
2022/11/06 01:01:08;;;;;;;;;;;;;;;-143.57;86.42;51124.06;5053219;28;20027;-65
2022/11/06 01:03:35;;;;;;;;;;;;;;;-143.57;87.06;51124.06;5051927;28;19928;-65
2022/11/06 01:06:03;;;;;;;;;;;;;;;-143.57;87.67;51120.09;5051448;28;19975;-64
2022/11/06 01:08:30;;;;;;;;;;;;;;;-143.57;88.03;51136.00;5053364;28;19983;-65
2022/11/06 01:10:57;;;;;;;;;;;;;;;-143.57;89.21;51151.91;5051185;28;20018;-65
2022/11/06 01:13:23;;;;;;;;;;;;;;;-143.57;90.07;51114.13;5055211;28;19931;-65
2022/11/06 01:15:50;;;;;;;;;;;;;;;-143.57;89.57;51116.13;5052764;28;19924;-64
2022/11/06 01:18:16;;;;;;;;;;;;;;;-143.57;88.88;51175.75;5052872;28;19936;-64
2022/11/06 01:20:43;;;;;;;;;;;;;;;-143.57;89.08;51120.09;5045686;28;19936;-64
2022/11/06 01:23:10;;;;;;;;;;;;;;;-143.57;89.57;51088.28;5058863;28;19947;-64
2022/11/06 01:25:36;;;;;;;;;;;;;;;-143.57;89.73;51149.91;5055728;28;19932;-65
2022/11/06 01:28:03;;;;;;;;;;;;;;;-143.57;90.42;51128.06;5051883;28;19971;-66
2022/11/06 01:30:29;;;;;;;;;;;;;;;-143.57;89.74;51116.13;5051186;28;20463;-65
2022/11/06 01:32:56;;;;;;;;;;;;;;;-143.57;89.16;51094.25;5051581;28;19933;-66
2022/11/06 01:35:22;;;;;;;;;;;;;;;-143.57;89.10;51130.03;5051445;28;19928;-66
2022/11/06 01:37:49;;;;;;;;;;;;;;;-143.57;88.95;51116.13;5049658;28;20028;-66
2022/11/06 01:40:16;;;;;;;;;;;;;;;-143.57;89.37;51143.97;5049245;28;19962;-66
2022/11/06 01:42:42;;;;;;;;;;;;;;;-143.57;89.76;51112.16;5053531;28;19929;-65
2022/11/06 01:45:18;;;;;;;;;;;;;;;-143.57;90.15;51151.91;5049150;28;19959;-66
2022/11/06 01:47:45;;;;;;;;;;;;;;;-143.57;90.40;51132.03;5048760;28;20451;-65
2022/11/06 01:50:13;;;;;;;;;;;;;;;-143.57;89.43;51134.00;5047633;28;19924;-65
2022/11/06 01:52:41;;;;;;;;;;;;;;;-143.57;88.94;51159.84;5050911;28;20039;-65
2022/11/06 01:55:22;;;;;;;;;;;;;;;-143.57;88.49;51136.00;5051010;28;19929;-65
2022/11/06 01:57:50;;;;;;;;;;;;;;;-143.57;87.32;51132.03;5052790;28;19974;-65
2022/11/06 02:00:18;;;;;;;;;;;;;;;-143.57;86.98;51143.97;5052049;28;20403;-65
2022/11/06 02:02:45;;;;;;;;;;;;;;;-143.57;87.55;51136.00;5051368;28;19955;-66
2022/11/06 02:05:12;;;;;;;;;;;;;;;-143.57;87.97;51120.09;5051348;28;20015;-65
2022/11/06 02:07:39;;;;;;;;;;;;;;;-143.57;87.96;51139.97;5048380;28;20296;-65
2022/11/06 02:10:06;;;;;;;;;;;;;;;-143.57;87.98;51124.06;5051296;28;20314;-66
2022/11/06 02:12:33;;;;;;;;;;;;;;;-143.57;87.51;51147.94;5051406;28;20015;-66
2022/11/06 02:15:11;;;;;;;;;;;;;;;-143.57;88.68;51171.78;5050871;28;19982;-66
2022/11/06 02:17:47;;;;;;;;;;;;;;;-143.57;88.70;51114.13;5049208;28;19929;-65
2022/11/06 02:20:23;;;;;;;;;;;;;;;-143.57;88.28;51116.13;5046746;28;19998;-66
2022/11/06 02:22:56;;;;;;;;;;;;;;;-143.57;89.39;51147.94;5051451;28;20047;-66
2022/11/06 02:25:41;;;;;;;;;;;;;;;-143.57;90.98;51092.28;5050191;28;19929;-66
2022/11/06 02:28:20;;;;;;;;;;;;;;;-143.57;93.59;51124.06;5049509;28;19928;-66
2022/11/06 02:30:48;;;;;;;;;;;;;;;-143.57;94.77;51124.06;5051391;28;20019;-67
2022/11/06 02:33:17;;;;;;;;;;;;;;;-143.57;96.43;51163.84;5049676;28;19994;-66
2022/11/06 02:35:58;;;;;;;;;;;;;;;-143.57;96.31;51143.97;5052023;28;20597;-67
2022/11/06 02:38:28;;;;;;;;;;;;;;;-143.57;96.02;51139.97;5047112;28;20488;-66
2022/11/06 02:40:57;;;;;;;;;;;;;;;-143.57;95.56;51169.78;5051745;28;20393;-66
2022/11/06 02:43:27;;;;;;;;;;;;;;;-143.57;96.44;51143.97;5049606;28;19973;-67
2022/11/06 02:45:55;;;;;;;;;;;;;;;-143.57;96.85;51163.84;5049838;28;19932;-66
2022/11/06 02:48:25;;;;;;;;;;;;;;;-143.57;100.00;51120.09;5049952;28;19928;-66
2022/11/06 02:50:53;;;;;;;;;;;;;;;-143.57;100.00;51153.91;5042029;28;19982;-67
2022/11/06 02:53:21;;;;;;;;;;;;;;;-143.57;100.00;51120.09;5048574;28;20361;-67
2022/11/06 02:55:56;;;;;;;;;;;;;;;-143.57;100.00;51124.06;5051119;28;19959;-66
2022/11/06 02:58:35;;;;;;;;;;;;;;;-143.57;100.00;51134.00;5048251;28;19928;-67
2022/11/06 03:01:28;;;;;;;;;;;;;;;-143.57;100.00;51104.19;5050129;28;20438;-65
2022/11/06 03:03:56;;;;;;;;;;;;;;;-143.57;100.00;51153.91;5047392;28;20328;-66
2022/11/06 03:06:28;;;;;;;;;;;;;;;-143.57;100.00;51136.00;5048422;28;19976;-66
2022/11/06 03:08:59;;;;;;;;;;;;;;;-143.57;100.00;51108.19;5052320;28;19975;-65
2022/11/06 03:11:25;;;;;;;;;;;;;;;-143.57;100.00;51151.91;5050675;28;19929;-66
2022/11/06 03:14:07;;;;;;;;;;;;;;;-143.57;100.00;51112.16;5047098;28;20449;-66
2022/11/06 03:16:34;;;;;;;;;;;;;;;-143.57;100.00;51136.00;5045896;28;20019;-65
2022/11/06 03:19:14;;;;;;;;;;;;;;;-143.57;100.00;51092.28;5047598;28;19928;-66
2022/11/06 03:21:46;;;;;;;;;;;;;;;-143.57;100.00;51124.06;5048479;28;19999;-66
2022/11/06 03:24:15;;;;;;;;;;;;;;;-143.57;100.00;51132.03;5050543;28;20384;-67
2022/11/06 03:26:47;;;;;;;;;;;;;;;-143.57;100.00;51145.94;5050261;28;20007;-67
2022/11/06 03:29:17;;;;;;;;;;;;;;;-143.57;100.00;51151.91;5052958;28;20364;-67
2022/11/06 03:31:52;;;;;;;;;;;;;;;-143.57;100.00;51132.03;5052796;28;20337;-66
2022/11/06 03:34:31;;;;;;;;;;;;;;;-143.57;100.00;51143.97;5050610;28;20019;-66
2022/11/06 03:37:04;;;;;;;;;;;;;;;-143.57;100.00;51145.94;5052336;28;19929;-67
2022/11/06 03:39:34;;;;;;;;;;;;;;;-143.57;100.00;51169.78;5051785;28;20407;-66
2022/11/06 03:42:05;;;;;;;;;;;;;;;-143.57;100.00;51159.84;5053086;28;20476;-66
2022/11/06 03:44:34;;;;;;;;;;;;;;;-143.57;100.00;51171.78;5053567;28;20412;-67
2022/11/06 03:47:10;;;;;;;;;;;;;;;-143.57;100.00;51143.97;5051771;28;19963;-67
2022/11/06 03:49:44;;;;;;;;;;;;;;;-143.57;100.00;51143.97;5048626;28;19928;-66
2022/11/06 03:52:15;;;;;;;;;;;;;;;-143.57;100.00;51147.94;5052499;28;20180;-67
2022/11/06 03:54:46;;;;;;;;;;;;;;;-143.57;100.00;51132.03;5054788;28;20019;-67
2022/11/06 03:57:33;;;;;;;;;;;;;;;-143.57;100.00;51145.94;5054165;28;19986;-66
2022/11/06 04:00:00;;;;;;;;;;;;;;;-143.57;100.00;51179.75;5048649;28;19931;-66
2022/11/06 04:02:39;;;;;;;;;;;;;;;-143.57;100.00;51147.94;5051701;28;19936;-66
2022/11/06 04:05:10;;;;;;;;;;;;;;;-143.57;100.00;51179.75;5053952;28;19936;-66
2022/11/06 04:07:38;;;;;;;;;;;;;;;-143.57;100.00;51175.75;5054779;28;20002;-66
2022/11/06 04:15:45;;;;;;;;;;;;;;;-143.57;100.00;51159.84;5051705;28;20027;-67
2022/11/06 04:18:18;;;;;;;;;;;;;;;-143.57;100.00;51175.75;5050478;28;19928;-66
2022/11/06 04:21:20;;;;;;;;;;;;;;;-143.57;100.00;51183.72;5081856;28;20304;-66
2022/11/06 04:26:59;;;;;;;;;;;;;;;-143.57;100.00;51151.91;5050016;28;19990;-67
2022/11/06 04:29:33;;;;;;;;;;;;;;;-143.57;100.00;51151.91;5054005;28;20374;-66
2022/11/06 04:32:23;;;;;;;;;;;;;;;-143.57;100.00;51130.03;5049798;28;19932;-66
2022/11/06 04:34:50;;;;;;;;;;;;;;;-143.57;100.00;51179.75;5049131;28;20476;-66
2022/11/06 04:37:22;;;;;;;;;;;;;;;-143.57;100.00;51128.06;5053817;28;19976;-67
2022/11/06 04:39:54;;;;;;;;;;;;;;;-143.57;100.00;51139.97;5053235;28;20024;-66
2022/11/06 04:42:39;;;;;;;;;;;;;;;-143.57;100.00;51147.94;5053499;28;19963;-66
2022/11/06 04:45:09;;;;;;;;;;;;;;;-143.57;100.00;51136.00;5052319;28;20520;-66
2022/11/06 04:47:37;;;;;;;;;;;;;;;-143.57;100.00;51169.78;5051373;28;19929;-67
2022/11/06 04:50:05;;;;;;;;;;;;;;;-143.57;100.00;51110.16;5047164;28;19982;-66
2022/11/06 04:52:32;;;;;;;;;;;;;;;-143.57;100.00;51195.63;5045236;28;20020;-66
2022/11/06 04:54:59;;;;;;;;;;;;;;;-143.57;100.00;51165.81;5050895;28;19925;-66
2022/11/06 04:57:25;;;;;;;;;;;;;;;-143.57;100.00;51167.81;5049686;28;20016;-66
2022/11/06 04:59:53;;;;;;;;;;;;;;;-143.57;100.00;51145.94;5052514;28;20031;-66
2022/11/06 05:02:19;;;;;;;;;;;;;;;-143.57;100.00;51147.94;5052837;28;19929;-67
2022/11/06 05:04:46;;;;;;;;;;;;;;;-143.57;100.00;51132.03;5052155;28;19951;-66
2022/11/06 05:07:13;;;;;;;;;;;;;;;-143.57;100.00;51179.75;5052929;28;19967;-66
2022/11/06 05:09:41;;;;;;;;;;;;;;;-143.57;100.00;51143.97;5052638;28;19982;-66
2022/11/06 05:12:07;;;;;;;;;;;;;;;-143.57;100.00;51171.78;5052780;28;20027;-67
2022/11/06 05:14:34;;;;;;;;;;;;;;;-143.57;100.00;51171.78;5053302;28;20023;-66
2022/11/06 05:17:00;;;;;;;;;;;;;;;-143.57;100.00;51179.75;5050252;28;19935;-66
2022/11/06 05:19:27;;;;;;;;;;;;;;;-143.57;100.00;51173.78;5052372;28;20354;-66
2022/11/06 05:24:39;;;;;;;;;;;;;;;-143.57;100.00;51124.06;5049970;28;19963;-66
2022/11/06 05:27:06;;;;;;;;;;;;;;;-143.57;100.00;51139.97;5052474;28;19929;-66
2022/11/06 05:29:32;;;;;;;;;;;;;;;-143.57;100.00;51175.75;5050929;28;19954;-66
2022/11/06 05:31:59;;;;;;;;;;;;;;;-143.57;100.00;51155.88;5052265;28;19982;-67
2022/11/06 05:34:25;;;;;;;;;;;;;;;-143.57;100.00;51171.78;5052548;28;20023;-67
2022/11/06 05:36:52;;;;;;;;;;;;;;;-143.57;100.00;51151.91;5050371;28;20611;-66
2022/11/06 05:39:19;;;;;;;;;;;;;;;-143.57;100.00;51199.63;5047594;28;19925;-67
2022/11/06 05:41:45;;;;;;;;;;;;;;;-143.57;100.00;51159.84;5043079;28;20359;-66
2022/11/06 05:44:12;;;;;;;;;;;;;;;-143.57;100.00;51155.88;5043299;28;19937;-66
2022/11/06 05:46:38;;;;;;;;;;;;;;;-143.57;100.00;51183.72;5042943;28;19935;-67
2022/11/06 05:49:15;;;;;;;;;;;;;;;-143.57;100.00;51151.91;5041016;28;19975;-67
2022/11/06 05:51:41;;;;;;;;;;;;;;;-143.57;100.00;51157.88;5043639;28;19933;-66
2022/11/06 05:54:08;;;;;;;;;;;;;;;-143.57;100.00;51171.78;5043236;28;19933;-67
2022/11/06 05:56:35;;;;;;;;;;;;;;;-143.57;100.00;51136.00;5043214;28;19929;-66
2022/11/06 05:59:01;;;;;;;;;;;;;;;-143.57;100.00;51157.88;5043483;28;20360;-65
2022/11/06 06:01:28;;;;;;;;;;;;;;;-143.57;100.00;51155.88;5042945;28;19933;-65
2022/11/06 06:03:55;;;;;;;;;;;;;;;-143.57;100.00;51179.75;5047629;28;19971;-65
2022/11/06 06:06:22;;;;;;;;;;;;;;;-143.57;100.00;51191.66;5053697;28;19974;-66
2022/11/06 06:08:49;;;;;;;;;;;;;;;-143.57;100.00;51177.75;5046439;28;19933;-66
2022/11/06 06:11:15;;;;;;;;;;;;;;;-143.57;100.00;51203.59;5051689;28;20919;-66
2022/11/06 06:13:43;;;;;;;;;;;;;;;-143.57;100.00;51171.78;5051374;28;19929;-66
2022/11/06 06:16:09;;;;;;;;;;;;;;;-143.57;100.00;51171.78;5050097;28;19924;-66
2022/11/06 06:18:36;;;;;;;;;;;;;;;-143.57;100.00;51147.94;5047447;28;20439;-65
2022/11/06 06:21:03;;;;;;;;;;;;;;;-143.57;100.00;51195.63;5046307;28;20474;-66
2022/11/06 06:23:29;;;;;;;;;;;;;;;-143.57;100.00;51179.75;5044099;28;20443;-66
2022/11/06 06:25:56;;;;;;;;;;;;;;;-143.57;100.00;51120.09;5046896;28;19932;-66
2022/11/06 06:28:23;;;;;;;;;;;;;;;-143.57;100.00;51155.88;5045369;28;20332;-67
2022/11/06 06:30:49;;;;;;;;;;;;;;;-143.57;100.00;51175.75;5042945;28;19967;-65
2022/11/06 06:33:16;;;;;;;;;;;;;;;-143.57;100.00;51183.72;5043980;28;20401;-66
2022/11/06 06:35:43;;;;;;;;;;;;;;;-143.57;100.00;51159.84;5040221;28;20014;-66
2022/11/06 06:38:09;;;;;;;;;;;;;;;-143.57;100.00;51155.88;5039399;28;20010;-66
2022/11/06 06:40:36;;;;;;;;;;;;;;;-143.57;100.00;51179.75;5038414;28;20010;-64
2022/11/06 06:43:03;;;;;;;;;;;;;;;-143.57;100.00;51189.69;5039862;28;19958;-66
2022/11/06 06:45:30;;;;;;;;;;;;;;;-143.57;100.00;51191.66;5041357;28;19972;-65
2022/11/06 06:48:06;;;;;;;;;;;;;;;-143.57;100.00;51167.81;5039876;28;20431;-65
2022/11/06 06:50:32;;;;;;;;;;;;;;;-143.57;100.00;51187.69;5040226;28;19964;-66
2022/11/06 06:52:59;;;;;;;;;;;;;;;-143.57;100.00;51155.88;5039496;28;19964;-66
2022/11/06 06:55:25;;;;;;;;;;;;;;;-143.57;100.00;51143.97;5039226;28;20006;-67
2022/11/06 06:57:59;;;;;;;;;;;;;;;-143.57;100.00;51167.81;5039426;28;19928;-65
2022/11/06 07:00:26;;;;;;;;;;;;;;;-143.57;100.00;51155.88;5038722;28;20301;-65
2022/11/06 07:02:53;;;;;;;;;;;;;;;-143.57;100.00;51183.72;5043176;28;20401;-65
2022/11/06 07:05:20;;;;;;;;;;;;;;;-143.57;100.00;51163.84;5044063;28;19929;-65
2022/11/06 07:07:46;;;;;;;;;;;;;;;-143.57;100.00;51171.78;5043380;28;19929;-66
2022/11/06 07:10:13;;;;;;;;;;;;;;;-143.57;100.00;51183.72;5042937;28;19928;-66
2022/11/06 07:12:39;;;;;;;;;;;;;;;-143.57;100.00;51171.78;5043796;28;20018;-66
2022/11/06 07:15:06;;;;;;;;;;;;;;;-143.57;100.00;51159.84;5043864;28;20442;-66
2022/11/06 07:17:33;;;;;;;;;;;;;;;-143.57;100.00;51139.97;5043318;28;20016;-66
2022/11/06 07:20:00;;;;;;;;;;;;;;;-143.57;100.00;51147.94;5043584;28;19925;-67
2022/11/06 07:22:26;;;;;;;;;;;;;;;-143.57;100.00;51151.91;5042462;28;19986;-66
2022/11/06 07:25:03;;;;;;;;;;;;;;;-143.57;100.00;51187.69;5043387;28;19929;-65
2022/11/06 07:27:29;;;;;;;;;;;;;;;-143.57;100.00;51175.75;5046233;28;19948;-65
2022/11/06 07:29:56;;;;;;;;;;;;;;;-143.57;100.00;51155.88;5040577;28;20513;-65
2022/11/06 07:32:22;;;;;;;;;;;;;;;-143.57;100.00;51175.75;5042318;28;20612;-66
2022/11/06 07:34:49;;;;;;;;;;;;;;;-143.57;100.00;51175.75;5039318;28;20026;-65
2022/11/06 07:37:16;;;;;;;;;;;;;;;-143.57;100.00;51177.75;5041198;28;19968;-67
2022/11/06 07:39:42;;;;;;;;;;;;;;;-143.57;100.00;51171.78;5038850;28;19962;-66
2022/11/06 07:42:09;;;;;;;;;;;;;;;-143.57;100.00;51155.88;5043222;28;19931;-65
2022/11/06 07:44:36;;;;;;;;;;;;;;;-143.57;100.00;51143.97;5043497;28;20454;-66
2022/11/06 07:47:02;;;;;;;;;;;;;;;-143.57;100.00;51159.84;5043187;28;19971;-65
2022/11/06 07:49:29;;;;;;;;;;;;;;;-143.57;100.00;51151.91;5041790;28;19929;-65
2022/11/06 07:51:56;;;;;;;;;;;;;;;-143.57;100.00;51141.97;5041984;28;20453;-66
2022/11/06 07:54:22;;;;;;;;;;;;;;;-143.57;100.00;51159.84;5042407;28;19933;-66
2022/11/06 07:56:49;;;;;;;;;;;;;;;-143.57;100.00;51187.69;5042339;28;20032;-65
2022/11/06 07:59:15;;;;;;;;;;;;;;;-143.57;100.00;51145.94;5041802;28;19925;-66
2022/11/06 08:01:42;;;;;;;;;;;;;;;-143.57;100.00;51132.03;5044559;28;19975;-66
2022/11/06 08:04:09;;;;;;;;;;;;;;;-143.57;100.00;51175.75;5040400;28;19928;-66
2022/11/06 08:06:36;;;;;;;;;;;;;;;-143.57;100.00;51147.94;5073237;28;19929;-66
2022/11/06 08:09:06;;;;;;;;;;;;;;;-143.57;100.00;51187.69;5041692;28;20032;-67
2022/11/06 08:11:33;;;;;;;;;;;;;;;-143.57;100.00;51175.75;5041857;28;20019;-67
2022/11/06 08:14:00;;;;;;;;;;;;;;;-143.57;100.00;51159.84;5042409;28;19928;-67
2022/11/06 08:16:27;;;;;;;;;;;;;;;-143.57;100.00;51207.56;5041978;28;19929;-67
2022/11/06 08:18:54;;;;;;;;;;;;;;;-143.57;100.00;51191.66;5042132;28;19987;-66
2022/11/06 08:21:20;;;;;;;;;;;;;;;-143.57;100.00;51163.84;5042502;28;19990;-65
2022/11/06 08:23:47;;;;;;;;;;;;;;;-143.57;100.00;51187.69;5041819;28;19933;-66
2022/11/06 08:26:14;;;;;;;;;;;;;;;-143.57;100.00;51153.91;5042231;28;19925;-66
2022/11/06 08:28:40;;;;;;;;;;;;;;;-143.57;100.00;51181.72;5039949;28;19932;-66
2022/11/06 08:31:07;;;;;;;;;;;;;;;-143.57;100.00;51167.81;5040814;28;20006;-66
2022/11/06 08:33:37;;;;;;;;;;;;;;;-143.57;100.00;51195.63;5042068;28;19928;-67
2022/11/06 08:36:05;;;;;;;;;;;;;;;-143.57;100.00;51163.84;5042606;28;19929;-66
2022/11/06 08:38:31;;;;;;;;;;;;;;;-143.57;100.00;51155.88;5041028;28;20466;-67
2022/11/06 08:41:02;;;;;;;;;;;;;;;-143.57;100.00;51155.88;5044913;28;20077;-65
2022/11/06 08:43:29;;;;;;;;;;;;;;;-143.57;100.00;51179.75;5047410;28;19939;-66
2022/11/06 08:45:55;;;;;;;;;;;;;;;-143.57;100.00;51189.69;5044678;28;20065;-65
2022/11/06 08:48:22;;;;;;;;;;;;;;;-143.57;100.00;51175.75;5046280;28;20391;-65
2022/11/06 08:50:49;;;;;;;;;;;;;;;-143.57;100.00;51193.66;5044840;28;19941;-65
2022/11/06 08:53:15;;;;;;;;;;;;;;;-143.57;100.00;51199.63;5048088;28;19925;-64
2022/11/06 08:55:43;;;;;;;;;;;;;;;-143.57;100.00;51175.75;5047200;28;20378;-64
2022/11/06 08:58:10;;;;;;;;;;;;;;;-143.57;100.00;51175.75;5048298;28;19924;-65
2022/11/06 09:00:36;;;;;;;;;;;;;;;-143.57;100.00;51203.59;5041901;28;19929;-66
2022/11/06 09:03:05;;;;;;;;;;;;;;;-143.57;100.00;51219.50;5047187;28;19987;-64
2022/11/06 09:05:31;;;;;;;;;;;;;;;-143.57;100.00;51185.69;5050134;28;19932;-64
2022/11/06 09:07:58;;;;;;;;;;;;;;;-143.57;100.00;51187.69;5050830;28;20019;-65
2022/11/06 09:10:26;;;;;;;;;;;;;;;-143.57;100.00;51175.75;5041875;28;19958;-65
2022/11/06 09:12:52;;;;;;;;;;;;;;;-143.57;100.00;51191.66;5047447;28;19929;-65
2022/11/06 09:15:19;;;;;;;;;;;;;;;-143.57;100.00;51181.72;5045089;28;20456;-66
2022/11/06 09:17:47;;;;;;;;;;;;;;;-143.57;100.00;51171.78;5044489;28;19925;-67
2022/11/06 09:20:14;;;;;;;;;;;;;;;-143.57;100.00;51157.88;5049959;28;19968;-65
2022/11/06 09:22:41;;;;;;;;;;;;;;;-143.57;100.00;51191.66;5047670;28;19924;-66
2022/11/06 09:25:08;;;;;;;;;;;;;;;-143.57;100.00;51207.56;5048120;28;20023;-66
2022/11/06 09:27:42;;;;;;;;;;;;;;;-143.57;100.00;51187.69;5050370;28;20017;-65
2022/11/06 09:30:09;;;;;;;;;;;;;;;-143.57;100.00;51193.66;5047352;28;19936;-66
2022/11/06 09:32:36;;;;;;;;;;;;;;;-143.57;100.00;51199.63;5041237;28;19932;-66
2022/11/06 09:35:03;;;;;;;;;;;;;;;-143.57;100.00;51165.81;5042450;28;19932;-66
2022/11/06 09:37:30;;;;;;;;;;;;;;;-143.57;100.00;51211.53;5046684;28;19933;-66
2022/11/06 09:39:57;;;;;;;;;;;;;;;-143.57;100.00;51197.63;5046873;28;19928;-66
2022/11/06 09:42:40;;;;;;;;;;;;;;;-143.57;100.00;51203.59;5045395;28;20019;-66
2022/11/06 09:45:10;;;;;;;;;;;;;;;-143.57;100.00;51179.75;5045910;28;19924;-66
2022/11/06 09:47:39;;;;;;;;;;;;;;;-143.57;100.00;51195.63;5041756;28;19928;-66
2022/11/06 09:50:11;;;;;;;;;;;;;;;-143.57;100.00;51171.78;5039145;28;20498;-66
2022/11/06 09:52:58;;;;;;;;;;;;;;;-143.57;100.00;51203.59;5043996;28;19939;-66
2022/11/06 09:55:38;;;;;;;;;;;;;;;-143.57;100.00;51183.72;5046245;28;20013;-66
2022/11/06 09:58:10;;;;;;;;;;;;;;;-143.57;100.00;51195.63;5043609;28;19932;-66
2022/11/06 10:00:38;;;;;;;;;;;;;;;-143.57;100.00;51181.72;5047653;28;20011;-66
2022/11/06 10:03:05;;;;;;;;;;;;;;;-143.57;100.00;51179.75;5043140;28;20046;-66
2022/11/06 10:05:33;;;;;;;;;;;;;;;-143.57;100.00;51159.84;5046313;28;19982;-66
2022/11/06 10:08:05;;;;;;;;;;;;;;;-143.57;100.00;51193.66;5048056;28;20051;-67
2022/11/06 10:10:39;;;;;;;;;;;;;;;-143.57;100.00;51211.53;5044897;28;19928;-66
2022/11/06 10:13:24;;;;;;;;;;;;;;;-143.57;100.00;51217.50;5045302;28;20486;-65
2022/11/06 10:16:03;;;;;;;;;;;;;;;-143.57;100.00;51195.63;5044775;28;19936;-66
2022/11/06 10:18:35;;;;;;;;;;;;;;;-143.57;100.00;51185.69;5043612;28;20458;-66
2022/11/06 10:21:22;;;;;;;;;;;;;;;-143.57;100.00;51215.53;5048802;28;20316;-67
2022/11/06 10:24:01;;;;;;;;;;;;;;;-143.57;100.00;51199.63;5039945;28;19971;-67
2022/11/06 10:26:39;;;;;;;;;;;;;;;-143.57;100.00;51191.66;5042322;28;19936;-66
2022/11/06 10:29:08;;;;;;;;;;;;;;;-143.57;100.00;51187.69;5044853;28;19929;-66
2022/11/06 10:31:38;;;;;;;;;;;;;;;-143.57;100.00;51195.63;5043537;28;19998;-66
2022/11/06 10:34:12;;;;;;;;;;;;;;;-143.57;100.00;51195.63;5044286;28;19932;-67
2022/11/06 10:36:43;;;;;;;;;;;;;;;-143.57;100.00;51223.47;5044712;28;19933;-66
2022/11/06 10:39:21;;;;;;;;;;;;;;;-143.57;100.00;51199.63;5046690;28;20040;-66
2022/11/06 10:41:49;;;;;;;;;;;;;;;-143.57;100.00;51189.69;5044056;28;20468;-66
2022/11/06 10:44:36;;;;;;;;;;;;;;;-143.57;100.00;51183.72;5046143;28;19928;-67
2022/11/06 10:47:18;;;;;;;;;;;;;;;-143.57;100.00;51215.53;5044578;28;19936;-66
2022/11/06 10:49:47;;;;;;;;;;;;;;;-143.57;100.00;51179.75;5042999;28;19925;-66
2022/11/06 10:52:13;;;;;;;;;;;;;;;-143.57;100.00;51211.53;5042160;28;19932;-65
2022/11/06 10:54:46;;;;;;;;;;;;;;;-143.57;100.00;51183.72;5047674;28;20409;-66
2022/11/06 10:57:20;;;;;;;;;;;;;;;-143.57;100.00;51209.56;5048071;28;20414;-66
2022/11/06 10:59:48;;;;;;;;;;;;;;;-143.57;100.00;51195.63;5041559;28;19935;-67
2022/11/06 11:02:22;;;;;;;;;;;;;;;-143.57;100.00;51211.53;5046911;28;20402;-66
2022/11/06 11:04:49;;;;;;;;;;;;;;;-143.57;100.00;51179.75;5048532;28;20479;-66
2022/11/06 11:07:23;;;;;;;;;;;;;;;-143.57;100.00;51191.66;5043448;28;19929;-67
2022/11/06 11:09:50;;;;;;;;;;;;;;;-143.57;100.00;51195.63;5046311;28;20023;-67
2022/11/06 11:12:21;;;;;;;;;;;;;;;-143.57;100.00;51199.63;5044198;28;19978;-67
2022/11/06 11:15:07;;;;;;;;;;;;;;;-143.57;100.00;51199.63;5041011;28;20024;-66
2022/11/06 11:17:33;;;;;;;;;;;;;;;-143.57;100.00;51225.47;5048349;28;19928;-66
2022/11/06 11:20:01;;;;;;;;;;;;;;;-143.57;100.00;51199.63;5047132;28;20386;-65
2022/11/06 11:22:27;;;;;;;;;;;;;;;-143.57;100.00;51215.53;5045228;28;20444;-66
2022/11/06 11:24:59;;;;;;;;;;;;;;;-143.57;100.00;51207.56;5048776;28;19928;-66
2022/11/06 11:27:27;;;;;;;;;;;;;;;-143.57;100.00;51193.66;5043492;28;19972;-66
2022/11/06 11:29:54;;;;;;;;;;;;;;;-143.57;100.00;51183.72;5051023;28;20427;-66
2022/11/06 11:32:21;;;;;;;;;;;;;;;-143.57;100.00;51183.72;5049974;28;20411;-66
2022/11/06 11:34:50;;;;;;;;;;;;;;;-143.57;100.00;51187.69;5049770;28;20593;-66
2022/11/06 11:37:22;;;;;;;;;;;;;;;-143.57;100.00;51211.53;5048087;28;20404;-66
2022/11/06 11:39:48;;;;;;;;;;;;;;;-143.57;100.00;51147.94;5046696;28;20411;-66
2022/11/06 11:42:20;;;;;;;;;;;;;;;-143.57;100.00;51209.56;5050131;28;20007;-66
2022/11/06 11:44:46;;;;;;;;;;;;;;;-143.57;100.00;51219.50;5046150;28;20331;-65
2022/11/06 11:47:21;;;;;;;;;;;;;;;-143.57;100.00;51191.66;5048021;28;20019;-65
2022/11/06 11:49:48;;;;;;;;;;;;;;;-143.57;100.00;51219.50;5051289;28;20015;-65
2022/11/06 11:52:20;;;;;;;;;;;;;;;-143.57;100.00;51187.69;5045700;28;19929;-65
2022/11/06 11:54:50;;;;;;;;;;;;;;;-143.57;100.00;51175.75;5051075;28;20020;-66
2022/11/06 11:57:19;;;;;;;;;;;;;;;-143.57;100.00;51219.50;5048652;28;20381;-65
2022/11/06 11:59:51;;;;;;;;;;;;;;;-143.57;100.00;51199.63;5049937;28;20290;-66
2022/11/06 12:02:18;;;;;;;;;;;;;;;-143.57;100.00;51175.75;5052125;28;19929;-65
2022/11/06 12:04:54;;;;;;;;;;;;;;;-143.57;100.00;51195.63;5050623;28;19935;-65
2022/11/06 12:07:40;;;;;;;;;;;;;;;-143.57;100.00;51225.47;5052612;28;20362;-66
2022/11/06 12:10:26;;;;;;;;;;;;;;;-143.57;100.00;51197.63;5048859;28;20349;-65
2022/11/06 12:12:54;;;;;;;;;;;;;;;-143.57;100.00;51219.50;5052132;28;20419;-65
2022/11/06 12:15:21;;;;;;;;;;;;;;;-143.57;100.00;51195.63;5049878;28;20035;-65
2022/11/06 12:17:51;;;;;;;;;;;;;;;-143.57;100.00;51229.44;5051883;28;19929;-65
2022/11/06 12:20:20;;;;;;;;;;;;;;;-143.57;100.00;51203.59;5049606;28;19955;-66
2022/11/06 12:22:49;;;;;;;;;;;;;;;-143.57;100.00;51217.50;5047394;28;19968;-65
2022/11/06 12:25:21;;;;;;;;;;;;;;;-143.57;100.00;51199.63;5049783;28;19934;-66
2022/11/06 12:27:52;;;;;;;;;;;;;;;-143.57;100.00;51183.72;5049888;28;19968;-68
2022/11/06 12:30:19;;;;;;;;;;;;;;;-143.57;100.00;51195.63;5049586;28;20424;-66
2022/11/06 12:32:55;;;;;;;;;;;;;;;-143.57;100.00;51207.56;5050053;28;20036;-66
2022/11/06 12:35:24;;;;;;;;;;;;;;;-143.57;100.00;51171.78;5050080;28;19985;-64
2022/11/06 12:37:55;;;;;;;;;;;;;;;-143.57;100.00;51211.53;5048495;28;20320;-65
2022/11/06 12:40:27;;;;;;;;;;;;;;;-143.57;100.00;51223.47;5051814;28;19936;-64
2022/11/06 12:42:56;;;;;;;;;;;;;;;-143.57;100.00;51195.63;5050325;28;19937;-65